Time;durP1;ratioP1;P1;durP2;ratioP2;P2;SDS_P1;SDS_P2;PMS_P1;PMS_P2;Temp;Humidity;BMP_temperature;BMP_pressure;BME280_temperature;BME280_humidity;BME280_pressure;Samples;Min_cycle;Max_cycle;Signal;HPM_P1;HPM_P2
2021/09/06 00:02:21;;;;;;;6.75;3.20;;;;;;;7.58;79.63;99996.04;4012182;88;21051;-81
2021/09/06 00:08:22;;;;;;;8.05;3.52;;;;;;;7.50;79.60;99999.61;3989739;88;21062;-82
2021/09/06 00:14:26;;;;;;;5.75;3.33;;;;;;;7.37;79.79;99992.47;3948978;89;21063;-80
2021/09/06 00:20:29;;;;;;;7.12;3.72;;;;;;;7.29;80.01;99994.67;3959190;88;21081;-81
2021/09/06 00:26:30;;;;;;;6.90;3.20;;;;;;;7.26;80.30;99993.42;3950873;89;21016;-80
2021/09/06 00:32:31;;;;;;;6.42;3.35;;;;;;;7.16;80.37;99999.78;3950211;89;21118;-81
2021/09/06 00:38:33;;;;;;;9.25;3.98;;;;;;;6.95;80.24;99992.94;3952604;89;21035;-81
2021/09/06 00:44:39;;;;;;;7.17;4.30;;;;;;;6.78;79.95;99993.56;3955793;88;21106;-80
2021/09/06 00:50:41;;;;;;;8.88;4.37;;;;;;;6.67;81.11;99998.53;3961944;89;21422;-81
2021/09/06 00:56:43;;;;;;;9.10;3.95;;;;;;;6.62;81.48;99999.28;3960795;89;21151;-81
2021/09/06 01:02:48;;;;;;;7.90;4.72;;;;;;;6.61;81.33;99997.12;3955545;89;21054;-81
2021/09/06 01:08:53;;;;;;;9.28;4.53;;;;;;;6.52;81.29;100003.15;3960364;89;21105;-81
2021/09/06 01:15:03;;;;;;;10.10;4.55;;;;;;;6.50;81.42;99995.09;3949626;89;21126;-81
2021/09/06 01:21:08;;;;;;;8.65;4.42;;;;;;;6.48;81.54;99989.97;3956678;88;21086;-81
2021/09/06 01:27:18;;;;;;;10.18;5.30;;;;;;;6.51;82.07;99992.04;3939516;89;21079;-81
2021/09/06 01:33:21;;;;;;;10.63;5.30;;;;;;;6.49;81.79;99985.31;3948355;89;21618;-81
2021/09/06 01:39:23;;;;;;;11.65;5.25;;;;;;;6.45;82.23;99984.37;3951876;89;21079;-81
2021/09/06 01:45:27;;;;;;;13.08;5.22;;;;;;;6.42;82.01;99999.42;3959570;89;21070;-80
2021/09/06 01:51:30;;;;;;;10.18;4.47;;;;;;;6.33;81.97;99995.35;3959569;88;21031;-81
2021/09/06 01:57:32;;;;;;;8.70;5.22;;;;;;;6.22;81.89;99998.16;3958849;88;21071;-81
2021/09/06 02:03:35;;;;;;;9.75;5.15;;;;;;;6.18;82.15;100005.93;3960899;89;21071;-81
2021/09/06 02:09:39;;;;;;;8.50;4.58;;;;;;;6.06;81.94;100012.00;3953985;88;21043;-81
2021/09/06 02:15:43;;;;;;;8.70;4.58;;;;;;;6.02;82.39;100017.05;3996221;88;21092;-80
2021/09/06 02:21:46;;;;;;;8.78;4.47;;;;;;;6.00;82.84;100018.73;3968253;88;21843;-81
2021/09/06 02:27:48;;;;;;;10.28;4.75;;;;;;;5.95;82.75;100013.44;3879465;88;35140;-81
2021/09/06 02:33:52;;;;;;;13.70;6.20;;;;;;;5.85;82.69;100008.89;3813697;91;21669;-82
2021/09/06 02:39:55;;;;;;;10.80;4.60;;;;;;;5.78;83.01;100005.26;3783603;93;21071;-81
2021/09/06 02:45:57;;;;;;;7.83;4.45;;;;;;;5.70;82.85;100010.70;3842936;91;21089;-81
2021/09/06 02:51:59;;;;;;;8.58;3.98;;;;;;;5.62;83.35;100014.20;3784843;93;21057;-82
2021/09/06 02:58:03;;;;;;;8.55;4.60;;;;;;;5.64;84.15;100024.98;3850836;90;21115;-81
2021/09/06 03:04:04;;;;;;;5.97;3.52;;;;;;;5.64;83.68;100011.39;3847595;91;21073;-82
2021/09/06 03:10:10;;;;;;;8.28;3.95;;;;;;;5.59;83.72;100004.75;3819060;91;21152;-81
2021/09/06 03:16:14;;;;;;;6.83;4.15;;;;;;;5.58;84.11;100007.23;3878607;90;21084;-82
2021/09/06 03:22:18;;;;;;;5.75;3.80;;;;;;;5.61;84.14;100003.89;3879874;90;21540;-82
2021/09/06 03:28:25;;;;;;;8.70;4.28;;;;;;;5.59;84.51;100008.05;3877753;90;21627;-82
2021/09/06 03:34:27;;;;;;;8.10;3.87;;;;;;;5.68;84.68;100004.23;3965460;88;21186;-82
2021/09/06 03:40:28;;;;;;;8.45;4.20;;;;;;;5.63;84.59;100006.28;3882209;90;21085;-82
2021/09/06 03:46:32;;;;;;;7.78;4.50;;;;;;;5.54;84.64;100009.55;3882199;90;21688;-82
2021/09/06 03:52:34;;;;;;;6.87;4.55;;;;;;;5.55;85.02;100015.22;3878203;90;21377;-81
2021/09/06 03:58:36;;;;;;;7.03;4.35;;;;;;;5.51;84.26;100014.27;3960712;87;21108;-81
2021/09/06 04:05:14;;;;;;;7.53;4.55;;;;;;;5.51;85.45;100015.62;3961725;88;21033;-82
2021/09/06 04:11:17;;;;;;;11.53;4.70;;;;;;;5.52;85.10;100019.38;3957113;88;21079;-82
2021/09/06 04:17:18;;;;;;;8.18;4.12;;;;;;;5.47;84.97;100015.99;3954337;89;21637;-82
2021/09/06 04:23:20;;;;;;;8.70;4.70;;;;;;;5.37;84.87;100020.37;3951015;89;21100;-81
2021/09/06 04:29:26;;;;;;;10.55;5.33;;;;;;;5.34;85.00;100019.08;3958038;89;21577;-82
2021/09/06 04:35:29;;;;;;;6.17;4.25;;;;;;;5.32;85.30;100024.05;3957538;88;21080;-82
2021/09/06 04:41:31;;;;;;;11.57;5.37;;;;;;;5.33;85.83;100028.34;3950345;89;21066;-81
2021/09/06 05:01:38;;;;;;;13.40;5.30;;;;;;;5.91;86.90;100035.59;3858039;91;21541;-81
2021/09/06 05:07:40;;;;;;;9.43;5.33;;;;;;;6.16;87.21;100032.63;3862615;91;21117;-82
2021/09/06 05:13:42;;;;;;;8.18;5.35;;;;;;;6.42;87.25;100038.06;3800748;92;21124;-82
2021/09/06 05:19:45;;;;;;;11.33;5.37;;;;;;;6.65;87.13;100046.25;3930001;89;21084;-82
2021/09/06 05:25:46;;;;;;;10.32;6.67;;;;;;;6.84;87.20;100048.85;3879328;90;21089;-84
2021/09/06 05:31:48;;;;;;;11.55;6.33;;;;;;;6.99;87.18;100042.06;3858467;90;21174;-81
2021/09/06 05:37:50;;;;;;;13.68;7.25;;;;;;;7.06;86.92;100046.45;3881512;90;21076;-82
2021/09/06 05:43:54;;;;;;;8.40;5.70;;;;;;;7.06;87.43;100036.92;3880895;90;21157;-82
2021/09/06 05:49:55;;;;;;;9.53;6.17;;;;;;;7.19;88.15;100047.59;3817122;92;21032;-82
2021/09/06 05:56:27;;;;;;;8.95;5.87;;;;;;;7.36;88.33;100039.33;3812339;92;21620;-81
2021/09/06 06:02:31;;;;;;;10.30;6.42;;;;;;;7.53;88.08;100036.52;3812023;92;21123;-82
2021/09/06 06:08:32;;;;;;;9.35;6.28;;;;;;;7.73;88.24;100038.49;3916346;90;21607;-83
2021/09/06 06:14:36;;;;;;;7.20;5.20;;;;;;;7.94;88.16;100037.93;3943435;89;21097;-82
2021/09/06 06:20:37;;;;;;;10.18;5.20;;;;;;;8.25;88.29;100041.66;3947839;89;21110;-82
2021/09/06 06:26:58;;;;;;;7.33;4.58;;;;;;;8.68;88.23;100040.67;3949482;89;21096;-82
2021/09/06 06:33:00;;;;;;;6.53;4.33;;;;;;;9.08;88.07;100029.95;3948302;89;21190;-82
2021/09/06 06:39:05;;;;;;;6.90;3.47;;;;;;;9.40;88.00;100041.34;3899230;90;21078;-82
2021/09/06 06:45:11;;;;;;;11.33;4.87;;;;;;;9.63;87.80;100050.69;3900027;90;21126;-82
2021/09/06 06:51:13;;;;;;;8.15;4.47;;;;;;;9.84;87.70;100044.49;3937059;89;21120;-82
2021/09/06 06:57:20;;;;;;;7.17;3.95;;;;;;;10.07;87.86;100051.08;3909386;90;21713;-82
2021/09/06 07:03:24;;;;;;;12.10;4.75;;;;;;;10.29;87.44;100054.66;3935913;89;21556;-82
2021/09/06 07:09:27;;;;;;;9.00;4.70;;;;;;;10.53;87.27;100067.46;3898047;90;21145;-82
2021/09/06 07:16:28;;;;;;;10.18;4.30;;;;;;;10.75;87.09;100070.45;3877680;90;21072;-82
2021/09/06 07:22:29;;;;;;;8.10;4.62;;;;;;;11.04;86.82;100077.46;3882419;90;21161;-82
2021/09/06 07:28:31;;;;;;;8.25;4.20;;;;;;;11.37;86.50;100079.89;3875622;90;21085;-83
2021/09/06 07:34:37;;;;;;;7.75;4.12;;;;;;;11.66;86.28;100087.12;3959751;88;21078;-82
2021/09/06 07:40:39;;;;;;;7.62;4.55;;;;;;;11.97;86.00;100091.17;3959470;88;21079;-82
2021/09/06 07:53:33;;;;;;;7.30;3.92;;;;;;;12.63;85.25;100083.59;3959006;88;21077;-82
2021/09/06 07:59:35;;;;;;;10.00;3.27;;;;;;;13.11;84.54;100089.64;3960677;88;21566;-82
2021/09/06 08:05:37;;;;;;;8.58;4.83;;;;;;;13.53;84.35;100095.27;3961021;88;21618;-81
2021/09/06 08:11:46;;;;;;;5.62;3.42;;;;;;;13.94;83.88;100086.10;3954525;88;21096;-82
2021/09/06 08:17:48;;;;;;;6.65;3.27;;;;;;;14.32;83.12;100084.29;3880198;90;21032;-82
2021/09/06 08:23:51;;;;;;;7.87;3.02;;;;;;;14.69;82.08;100076.30;3880998;90;21093;-81
2021/09/06 08:29:53;;;;;;;6.28;2.95;;;;;;;15.01;81.61;100080.80;3880288;90;21076;-81
2021/09/06 08:35:54;;;;;;;3.85;2.47;;;;;;;15.22;79.44;100079.64;3961735;88;21506;-81
2021/09/06 08:42:00;;;;;;;6.17;2.80;;;;;;;15.45;79.16;100083.84;3959648;88;21113;-81
2021/09/06 08:48:05;;;;;;;7.17;1.95;;;;;;;15.79;78.33;100089.20;3957219;88;21497;-82
2021/09/06 08:54:07;;;;;;;5.85;2.08;;;;;;;15.91;72.97;100097.97;3937978;88;21114;-82
2021/09/06 09:00:11;;;;;;;4.50;2.58;;;;;;;16.09;74.36;100093.95;3957958;88;21095;-81
2021/09/06 09:06:16;;;;;;;3.12;1.90;;;;;;;16.23;73.35;100093.46;3946456;88;35491;-83
2021/09/06 09:12:21;;;;;;;2.30;1.70;;;;;;;16.42;73.07;100093.75;3817220;90;21120;-81
2021/09/06 09:18:29;;;;;;;4.97;2.20;;;;;;;16.66;67.73;100098.64;3790041;92;21117;-82
2021/09/06 09:24:43;;;;;;;7.20;2.08;;;;;;;17.05;69.56;100096.19;3764105;92;21543;-82
2021/09/06 09:31:10;;;;;;;3.98;2.37;;;;;;;17.88;69.79;100090.36;3648666;92;21140;-84
2021/09/06 09:37:26;;;;;;;5.28;1.90;;;;;;;18.54;61.30;100083.30;3778525;92;21738;-82
2021/09/06 09:43:30;;;;;;;4.50;2.25;;;;;;;19.58;66.82;100080.92;3781867;93;21145;-83
2021/09/06 09:49:34;;;;;;;4.70;1.67;;;;;;;20.12;63.65;100078.03;3783387;93;21177;-83
2021/09/06 09:55:36;;;;;;;2.27;1.35;;;;;;;20.71;57.99;100075.81;3780384;93;21122;-83
2021/09/06 10:01:56;;;;;;;2.92;1.75;;;;;;;20.64;54.28;100068.16;3785928;93;21584;-83
2021/09/06 10:08:01;;;;;;;3.02;1.47;;;;;;;21.36;55.74;100069.73;3786188;93;21136;-82
2021/09/06 10:14:21;;;;;;;3.62;1.75;;;;;;;21.93;55.75;100060.45;3810216;90;21138;-82
2021/09/06 10:20:26;;;;;;;2.72;1.60;;;;;;;22.55;53.23;100049.33;3824746;92;21113;-82
2021/09/06 10:33:36;;;;;;;2.98;1.75;;;;;;;23.24;53.27;100041.38;3870660;91;21099;-83
2021/09/06 10:39:46;;;;;;;2.95;1.37;;;;;;;23.80;52.51;100030.84;3871280;91;21078;-83
2021/09/06 10:45:52;;;;;;;4.45;1.45;;;;;;;24.32;51.51;100039.81;3858146;91;21109;-82
2021/09/06 10:51:57;;;;;;;3.50;1.45;;;;;;;24.23;45.24;100035.48;3819864;92;21771;-83
2021/09/06 10:58:00;;;;;;;3.80;1.80;;;;;;;24.49;47.52;100026.55;3857299;91;21131;-81
2021/09/06 11:04:03;;;;;;;2.12;1.82;;;;;;;24.52;46.31;100027.06;3845606;91;21690;-82
2021/09/06 11:10:15;;;;;;;3.22;1.62;;;;;;;24.67;39.97;100021.88;3880260;91;21091;-84
2021/09/06 11:16:18;;;;;;;5.28;1.37;;;;;;;24.46;41.24;100018.41;3954088;88;21082;-82
2021/09/06 11:22:26;;;;;;;;;;;;;;;24.32;44.59;100014.63;3957613;89;21146;-83
2021/09/06 11:28:31;;;;;;;2.10;1.10;;;;;;;24.42;43.66;100016.95;3879032;91;20169;-82
2021/09/06 11:34:34;;;;;;;1.92;1.30;;;;;;;24.27;43.88;100015.20;3867034;91;21879;-82
2021/09/06 11:47:41;;;;;;;1.42;1.05;;;;;;;23.30;42.42;99997.59;3948894;89;21197;-84
2021/09/06 11:53:58;;;;;;;2.83;1.47;;;;;;;22.73;41.95;100001.68;3954229;89;21136;-85
2021/09/06 11:59:59;;;;;;;1.70;1.15;;;;;;;22.21;40.99;99992.98;3949152;88;21663;-83
2021/09/06 12:06:10;;;;;;;2.00;1.40;;;;;;;21.56;40.55;99990.43;3953590;89;21568;-82
2021/09/06 12:12:23;;;;;;;2.17;1.15;;;;;;;21.19;39.18;99987.25;3954534;89;21443;-81
2021/09/06 12:18:43;;;;;;;2.12;1.30;;;;;;;20.73;40.66;99979.40;3884106;90;21174;-82
2021/09/06 12:24:46;;;;;;;1.90;1.37;;;;;;;20.52;40.49;99976.30;3858947;89;21056;-81
2021/09/06 12:31:06;;;;;;;2.27;1.10;;;;;;;20.29;40.77;99969.27;3836901;90;21573;-82
2021/09/06 12:37:08;;;;;;;2.45;1.20;;;;;;;20.08;40.51;99961.95;3893798;91;21089;-83
2021/09/06 12:43:09;;;;;;;2.20;1.40;;;;;;;20.17;41.24;99958.70;3844201;91;21080;-82
2021/09/06 12:49:10;;;;;;;2.40;1.22;;;;;;;20.12;40.07;99943.84;3849279;91;21091;-82
2021/09/06 12:55:12;;;;;;;1.82;1.07;;;;;;;19.97;38.84;99940.44;3849960;91;21088;-82
2021/09/06 13:01:13;;;;;;;2.62;1.20;;;;;;;19.69;40.59;99942.73;3962348;89;21602;-82
2021/09/06 13:07:19;;;;;;;2.08;1.50;;;;;;;19.70;40.95;99945.72;3961679;89;21054;-82
2021/09/06 13:13:19;;;;;;;2.27;1.40;;;;;;;19.67;41.38;99936.20;3945516;89;21079;-82
2021/09/06 13:19:20;;;;;;;3.60;1.50;;;;;;;19.63;41.93;99945.19;3896200;90;21130;-83
2021/09/06 13:25:21;;;;;;;2.37;1.42;;;;;;;19.53;42.06;99939.13;3896190;90;21085;-81
2021/09/06 13:31:23;;;;;;;2.27;1.10;;;;;;;19.42;38.81;99943.23;3811317;92;21049;-82
2021/09/06 13:37:26;;;;;;;4.85;1.65;;;;;;;19.22;41.29;99939.40;3814428;92;21075;-81
2021/09/06 13:43:36;;;;;;;7.03;1.50;;;;;;;19.11;41.22;99935.33;3758249;93;21088;-82
2021/09/06 13:49:37;;;;;;;2.20;1.25;;;;;;;19.02;41.37;99932.25;3814966;92;21083;-82
2021/09/06 13:55:41;;;;;;;2.67;1.72;;;;;;;19.01;42.29;99929.29;3765195;93;21096;-81
2021/09/06 14:01:44;;;;;;;4.87;1.50;;;;;;;18.99;42.54;99923.35;3813968;92;21059;-82
2021/09/06 14:07:45;;;;;;;2.72;1.67;;;;;;;18.97;42.18;99929.90;3808482;92;21144;-82
2021/09/06 14:13:47;;;;;;;2.27;1.40;;;;;;;18.98;42.89;99929.31;3836408;89;21145;-83
2021/09/06 14:19:48;;;;;;;3.47;1.70;;;;;;;18.89;42.55;99926.22;3883079;91;21143;-82
2021/09/06 14:25:50;;;;;;;2.65;1.40;;;;;;;18.85;42.96;99924.85;3956355;87;21535;-82
2021/09/06 14:31:51;;;;;;;3.67;1.30;;;;;;;18.78;43.31;99927.66;3956012;89;21051;-82
2021/09/06 14:37:52;;;;;;;4.22;1.60;;;;;;;18.76;43.85;99922.34;3956532;89;21090;-84
2021/09/06 14:43:54;;;;;;;4.40;1.87;;;;;;;18.71;44.13;99914.63;3949450;89;21078;-82
2021/09/06 14:49:56;;;;;;;3.60;2.15;;;;;;;18.65;44.59;99920.42;3952692;88;21151;-82
2021/09/06 14:55:58;;;;;;;5.33;1.87;;;;;;;18.60;44.96;99915.30;3948150;87;21580;-82
2021/09/06 15:02:02;;;;;;;3.45;1.80;;;;;;;18.51;45.47;99910.04;3960843;88;21612;-83
2021/09/06 15:08:04;;;;;;;3.40;1.52;;;;;;;18.41;45.60;99915.05;3952027;87;21043;-82
2021/09/06 15:14:12;;;;;;;3.60;1.98;;;;;;;18.33;45.76;99908.73;3871070;90;21602;-82
2021/09/06 15:20:14;;;;;;;4.35;1.77;;;;;;;18.27;45.97;99909.55;3902689;90;21094;-82
2021/09/06 15:26:15;;;;;;;4.70;1.95;;;;;;;18.15;46.59;99911.41;3901742;90;21166;-82
2021/09/06 15:32:17;;;;;;;2.40;1.70;;;;;;;18.07;46.99;99905.70;3890069;90;21615;-82
2021/09/06 15:38:24;;;;;;;3.45;1.82;;;;;;;17.99;46.99;99902.17;3903392;90;21194;-83
2021/09/06 15:44:28;;;;;;;5.33;2.10;;;;;;;17.91;47.37;99894.28;3887582;90;21056;-82
2021/09/06 15:50:31;;;;;;;5.12;2.02;;;;;;;17.81;48.19;99895.90;3882254;89;21583;-82
2021/09/06 16:03:37;;;;;;;3.27;1.90;;;;;;;17.65;48.56;99886.48;3834008;92;21107;-83
2021/09/06 16:09:39;;;;;;;3.50;1.60;;;;;;;17.56;48.81;99894.39;3858992;91;21112;-82
2021/09/06 16:15:40;;;;;;;5.65;1.42;;;;;;;17.49;49.38;99889.69;3825681;92;21110;-81
2021/09/06 16:21:43;;;;;;;2.90;1.70;;;;;;;17.37;49.72;99894.21;3900276;90;21026;-81
2021/09/06 16:27:47;;;;;;;3.15;1.60;;;;;;;17.23;49.89;99899.00;3848687;91;21588;-82
2021/09/06 16:33:50;;;;;;;7.67;1.60;;;;;;;17.11;50.29;99891.89;3855844;91;21070;-82
2021/09/06 16:39:52;;;;;;;7.03;1.87;;;;;;;16.96;51.02;99895.86;3878898;90;21030;-81
2021/09/06 16:45:53;;;;;;;12.68;2.52;;;;;;;16.79;51.73;99900.77;3825395;91;21716;-83
2021/09/06 16:51:54;;;;;;;10.10;2.58;;;;;;;16.56;52.42;99898.98;3850900;91;21080;-82
2021/09/06 16:57:55;;;;;;;7.47;2.55;;;;;;;16.27;53.36;99889.05;3890964;89;21437;-82
2021/09/06 17:03:58;;;;;;;6.03;2.92;;;;;;;15.94;54.82;99893.47;3879827;90;21040;-81
2021/09/06 17:09:59;;;;;;;5.33;2.50;;;;;;;15.60;55.64;99890.16;3897912;90;21109;-82
2021/09/06 17:16:02;;;;;;;6.42;2.95;;;;;;;15.33;56.17;99897.08;3886982;89;21082;-81
2021/09/06 17:22:04;;;;;;;5.65;2.80;;;;;;;15.07;57.02;99893.95;3872284;91;21044;-82
2021/09/06 17:28:06;;;;;;;5.28;2.40;;;;;;;14.79;58.13;99896.48;3844073;92;21023;-82
2021/09/06 17:34:07;;;;;;;10.08;5.00;;;;;;;14.45;59.07;99899.70;3868487;91;21153;-82
2021/09/06 17:40:10;;;;;;;13.28;6.80;;;;;;;14.12;59.33;99901.31;3869908;91;21139;-82
2021/09/06 17:46:11;;;;;;;10.80;6.45;;;;;;;13.90;60.02;99898.67;3879435;91;21761;-81
2021/09/06 17:52:12;;;;;;;21.25;7.70;;;;;;;13.72;60.87;99901.77;3875665;91;21045;-82
2021/09/06 17:58:13;;;;;;;12.70;8.05;;;;;;;13.51;61.86;99904.27;3856932;91;21091;-82
2021/09/06 18:04:16;;;;;;;14.50;8.63;;;;;;;13.28;62.35;99912.57;3862281;91;21053;-82
2021/09/06 18:10:19;;;;;;;15.85;9.85;;;;;;;13.12;63.34;99914.70;3857159;91;21039;-82
2021/09/06 18:16:20;;;;;;;16.02;9.43;;;;;;;12.96;63.73;99919.52;3745418;91;10000227;-81
2021/09/06 18:22:26;;;;;;;14.80;8.68;;;;;;;12.81;64.22;99917.68;3854606;91;21606;-82
2021/09/06 18:28:50;;;;;;;29.45;14.60;;;;;;;12.58;65.31;99917.70;3840035;91;21043;-81
2021/09/06 18:34:51;;;;;;;32.13;16.00;;;;;;;12.37;65.35;99921.42;3878657;90;21469;-82
2021/09/06 18:41:09;;;;;;;21.33;11.08;;;;;;;12.20;65.84;99925.23;3881755;90;21039;-81
2021/09/06 18:47:11;;;;;;;20.27;11.48;;;;;;;12.13;66.88;99935.48;3810349;92;21125;-82
2021/09/06 18:53:12;;;;;;;23.87;13.60;;;;;;;12.00;67.51;99935.41;3907768;90;21589;-80
2021/09/06 18:59:15;;;;;;;26.85;14.68;;;;;;;11.81;67.79;99943.63;3872510;90;21026;-81
2021/09/06 19:05:22;;;;;;;25.97;13.45;;;;;;;11.73;67.89;99939.15;3822939;92;21051;-81
2021/09/06 19:11:25;;;;;;;26.15;14.03;;;;;;;11.69;68.23;99939.66;3896738;90;21551;-81
2021/09/06 19:17:26;;;;;;;17.85;9.88;;;;;;;11.53;68.94;99938.88;3893382;90;21571;-82
2021/09/06 19:23:30;;;;;;;19.98;11.08;;;;;;;11.40;69.70;99934.66;3880324;90;21587;-82
2021/09/06 19:29:31;;;;;;;21.50;11.90;;;;;;;11.28;69.58;99938.09;3895651;90;21015;-81
2021/09/06 19:42:05;;;;;;;20.65;10.43;;;;;;;10.97;70.37;99939.74;3883284;90;21721;-81
2021/09/06 19:48:46;;;;;;;24.70;11.05;;;;;;;10.76;70.29;99944.69;3893614;90;21547;-81
2021/09/06 19:54:49;;;;;;;22.85;10.72;;;;;;;10.52;71.12;99946.79;3873301;90;21066;-80
2021/09/06 20:00:54;;;;;;;26.50;11.85;;;;;;;10.34;71.76;99953.72;3902541;90;21043;-80
2021/09/06 20:06:55;;;;;;;17.98;9.78;;;;;;;10.28;71.95;99953.19;3903147;91;21076;-81
2021/09/06 20:12:57;;;;;;;18.80;9.15;;;;;;;10.17;72.41;99954.84;3875940;90;21042;-80
2021/09/06 20:18:58;;;;;;;21.45;10.05;;;;;;;10.12;72.93;99956.45;3868925;88;21083;-81
2021/09/06 20:24:59;;;;;;;19.15;10.90;;;;;;;10.06;73.33;99960.55;3869177;90;21171;-81
2021/09/06 20:31:00;;;;;;;16.42;9.93;;;;;;;10.00;73.65;99959.77;3869324;90;21090;-82
2021/09/06 20:37:02;;;;;;;25.32;9.53;;;;;;;9.88;73.65;99958.45;3869728;90;21127;-81
2021/09/06 20:43:04;;;;;;;19.67;10.28;;;;;;;9.72;73.71;99957.02;3870328;90;21753;-81
2021/09/06 20:49:06;;;;;;;18.87;9.70;;;;;;;9.57;74.32;99944.06;3881387;90;21127;-81
2021/09/06 20:55:08;;;;;;;19.05;9.58;;;;;;;9.42;74.49;99946.14;3883154;90;21166;-81
2021/09/06 21:01:09;;;;;;;17.20;10.05;;;;;;;9.30;75.17;99951.64;3903833;90;21078;-81
2021/09/06 21:07:11;;;;;;;20.35;10.95;;;;;;;9.27;75.32;99959.16;3912573;90;21093;-81
2021/09/06 21:13:13;;;;;;;22.40;10.25;;;;;;;9.21;75.47;99959.14;3887975;90;21117;-81
2021/09/06 21:19:16;;;;;;;20.37;10.65;;;;;;;8.99;74.99;99945.97;3838179;90;21059;-81
2021/09/06 21:25:20;;;;;;;18.23;10.15;;;;;;;9.01;76.21;99961.42;3939253;89;21101;-81
2021/09/06 21:31:25;;;;;;;23.75;10.30;;;;;;;9.16;76.30;99960.76;3943156;89;21872;-81
2021/09/06 21:37:26;;;;;;;20.95;9.95;;;;;;;8.97;76.57;99964.62;3938712;89;21065;-81
2021/09/06 21:43:28;;;;;;;16.27;9.78;;;;;;;8.96;77.07;99967.10;3936789;89;21037;-83
2021/09/06 21:49:31;;;;;;;20.15;10.55;;;;;;;8.85;76.71;99961.30;3944484;89;21079;-81
2021/09/06 21:55:32;;;;;;;25.77;10.95;;;;;;;8.74;76.90;99962.87;3957750;89;21094;-81
2021/09/06 22:01:33;;;;;;;22.75;11.45;;;;;;;8.55;76.87;99959.88;3937053;89;21149;-81
2021/09/06 22:07:36;;;;;;;23.83;11.38;;;;;;;8.31;76.62;99963.13;3949362;89;21083;-80
2021/09/06 22:13:38;;;;;;;20.43;11.33;;;;;;;8.23;77.78;99965.36;3943378;89;21073;-81
2021/09/06 22:19:40;;;;;;;19.80;10.50;;;;;;;8.22;78.18;99959.66;3895197;89;21100;-81
2021/09/06 22:25:41;;;;;;;21.07;11.30;;;;;;;8.20;78.71;99966.01;3881467;91;21019;-81
2021/09/06 22:31:42;;;;;;;18.98;10.10;;;;;;;8.39;78.78;99964.41;3881763;91;21035;-81
2021/09/06 22:37:45;;;;;;;19.37;10.63;;;;;;;8.38;79.09;99963.38;3870539;90;21134;-81
2021/09/06 22:50:51;;;;;;;20.35;10.65;;;;;;;8.19;78.81;99956.24;3896332;91;21080;-81
2021/09/06 22:56:52;;;;;;;19.75;10.38;;;;;;;8.03;78.67;99951.17;3875688;91;21119;-82
2021/09/06 23:02:56;;;;;;;14.87;9.50;;;;;;;7.90;78.91;99955.22;3881087;91;21119;-81
2021/09/06 23:09:01;;;;;;;18.42;11.20;;;;;;;7.80;78.72;99947.99;3885480;91;21133;-81
2021/09/06 23:15:06;;;;;;;19.32;10.48;;;;;;;7.57;79.70;99950.83;3881534;90;21158;-81
2021/09/06 23:21:08;;;;;;;21.12;10.70;;;;;;;7.54;78.97;99941.95;3874174;91;21036;-80
2021/09/06 23:27:09;;;;;;;21.05;11.28;;;;;;;7.38;80.32;99934.13;3957727;89;21661;-81
2021/09/06 23:33:11;;;;;;;18.10;10.68;;;;;;;7.53;80.39;99929.47;3883134;91;21035;-80
2021/09/06 23:39:12;;;;;;;18.17;10.55;;;;;;;7.54;80.64;99936.51;3952515;89;21050;-81
2021/09/06 23:45:14;;;;;;;20.88;10.98;;;;;;;7.54;80.75;99925.61;3959395;89;21137;-81
2021/09/06 23:51:16;;;;;;;19.40;10.05;;;;;;;7.40;80.27;99914.17;3866942;91;21063;-80
2021/09/06 23:57:17;;;;;;;17.92;9.65;;;;;;;7.28;80.61;99910.03;3862490;91;21095;-80
